createdAt,value
2018-08-22T00:00:56.553Z,5.90
2018-08-22T00:03:26.033Z,6.93
2018-08-22T00:05:55.475Z,6.23
2018-08-22T00:08:30.215Z,7.37
2018-08-22T00:10:59.613Z,5.67
2018-08-22T00:13:29.001Z,6.53
2018-08-22T00:15:58.418Z,6.20
2018-08-22T00:18:27.753Z,5.97
2018-08-22T00:21:04.577Z,7.13
2018-08-22T00:23:34.029Z,6.53
2018-08-22T00:26:03.550Z,6.90
2018-08-22T00:28:33.038Z,8.63
2018-08-22T00:31:03.506Z,6.67
2018-08-22T00:33:32.892Z,6.27
2018-08-22T00:36:02.325Z,5.70
2018-08-22T00:38:31.825Z,6.67
2018-08-22T00:41:01.293Z,7.10
2018-08-22T00:43:30.790Z,6.87
2018-08-22T00:46:00.478Z,6.13
2018-08-22T00:48:29.869Z,7.17
2018-08-22T00:50:59.361Z,8.53
2018-08-22T00:53:28.726Z,6.77
2018-08-22T00:55:58.137Z,8.07
2018-08-22T00:58:27.490Z,7.47
2018-08-22T01:00:57.969Z,6.23
2018-08-22T01:03:27.313Z,7.47
2018-08-22T01:05:56.821Z,7.73
2018-08-22T01:08:26.209Z,6.73
2018-08-22T01:11:00.039Z,6.83
2018-08-22T01:13:29.404Z,7.47
2018-08-22T01:15:58.790Z,7.83
2018-08-22T01:18:28.163Z,9.47
2018-08-22T01:20:59.673Z,7.23
2018-08-22T01:23:29.305Z,7.77
2018-08-22T01:25:58.705Z,7.27
2018-08-22T01:28:28.118Z,7.23
2018-08-22T01:31:16.228Z,7.70
2018-08-22T01:33:45.531Z,7.80
2018-08-22T01:36:14.897Z,7.23
2018-08-22T01:38:44.313Z,8.63
2018-08-22T01:41:21.400Z,7.43
2018-08-22T01:43:50.797Z,8.00
2018-08-22T01:46:20.189Z,7.30
2018-08-22T01:48:49.545Z,7.57
2018-08-22T01:51:20.142Z,7.60
2018-08-22T01:53:49.677Z,7.27
2018-08-22T01:56:19.094Z,7.67
2018-08-22T01:58:48.517Z,7.43
2018-08-22T02:01:25.395Z,7.40
2018-08-22T02:03:54.741Z,7.77
2018-08-22T02:06:24.034Z,7.10
2018-08-22T02:08:53.445Z,7.50
2018-08-22T02:11:23.905Z,8.07
2018-08-22T02:13:53.289Z,8.00
2018-08-22T02:16:22.818Z,7.93
2018-08-22T02:18:52.234Z,8.63
2018-08-22T02:21:22.629Z,7.70
2018-08-22T02:23:52.045Z,7.40
2018-08-22T02:26:21.433Z,9.97
2018-08-22T02:28:50.846Z,8.80
2018-08-22T02:31:22.381Z,7.80
2018-08-22T02:33:52.053Z,6.60
2018-08-22T02:36:21.414Z,6.50
2018-08-22T02:38:50.930Z,8.23
2018-08-22T02:41:25.768Z,7.73
2018-08-22T02:43:55.189Z,7.90
2018-08-22T02:46:24.614Z,7.63
2018-08-22T02:48:55.309Z,8.07
2018-08-22T02:51:26.313Z,9.97
2018-08-22T02:53:55.869Z,7.40
2018-08-22T02:56:25.221Z,8.50
2018-08-22T02:58:54.630Z,7.87
2018-08-22T03:01:26.129Z,7.77
2018-08-22T03:03:55.547Z,7.57
2018-08-22T03:06:24.942Z,7.80
2018-08-22T03:08:54.371Z,8.13
2018-08-22T03:11:23.869Z,7.63
2018-08-22T03:13:53.189Z,9.23
2018-08-22T03:16:22.521Z,7.57
2018-08-22T03:18:51.965Z,7.47
2018-08-22T03:21:25.234Z,7.83
2018-08-22T03:23:54.869Z,7.73
2018-08-22T03:26:24.437Z,8.70
2018-08-22T03:28:53.830Z,8.57
2018-08-22T03:31:35.970Z,8.23
2018-08-22T03:34:05.363Z,7.13
2018-08-22T03:36:34.797Z,7.53
2018-08-22T03:39:12.661Z,7.83
2018-08-22T03:41:55.405Z,9.07
2018-08-22T03:44:24.489Z,8.17
2018-08-22T03:46:53.577Z,7.63
2018-08-22T03:49:22.713Z,8.10
2018-08-22T03:52:02.029Z,8.23
2018-08-22T03:54:31.120Z,9.70
2018-08-22T03:57:00.297Z,7.27
2018-08-22T03:59:29.701Z,8.37
2018-08-22T04:02:01.178Z,8.13
2018-08-22T04:04:31.385Z,8.67
2018-08-22T04:07:00.737Z,7.70
2018-08-22T04:09:29.884Z,8.17
2018-08-22T04:12:06.914Z,9.03
2018-08-22T04:14:36.309Z,8.90
2018-08-22T04:17:06.293Z,8.53
2018-08-22T04:19:35.737Z,8.60
2018-08-22T04:22:06.253Z,7.40
2018-08-22T04:24:35.697Z,7.67
2018-08-22T04:27:05.142Z,8.13
2018-08-22T04:29:34.530Z,9.00
2018-08-22T04:32:05.246Z,7.97
2018-08-22T04:34:34.709Z,8.93
2018-08-22T04:37:04.169Z,8.53
2018-08-22T04:39:33.618Z,8.37
2018-08-22T04:42:02.933Z,8.37
2018-08-22T04:44:32.341Z,8.60
2018-08-22T04:47:01.745Z,20.00
2018-08-22T04:49:31.209Z,32.57
2018-08-22T04:52:01.642Z,21.60
2018-08-22T04:54:31.043Z,12.50
2018-08-22T04:57:00.601Z,10.53
2018-08-22T04:59:30.066Z,10.13
2018-08-22T05:02:00.581Z,10.33
2018-08-22T05:04:30.049Z,9.30
2018-08-22T05:06:59.494Z,9.00
2018-08-22T05:09:28.853Z,8.40
2018-08-22T05:12:11.033Z,9.17
2018-08-22T05:14:40.358Z,12.13
2018-08-22T05:17:09.829Z,9.27
2018-08-22T05:19:39.291Z,9.27
2018-08-22T05:22:25.484Z,10.00
2018-08-22T05:24:54.955Z,9.93
2018-08-22T05:27:24.369Z,10.67
2018-08-22T05:29:53.778Z,9.77
2018-08-22T05:32:24.249Z,10.63
2018-08-22T05:34:53.658Z,12.40
2018-08-22T05:37:23.002Z,10.30
2018-08-22T05:39:52.462Z,10.47
2018-08-22T05:42:25.110Z,8.97
2018-08-22T05:44:54.565Z,10.70
2018-08-22T05:47:23.985Z,9.33
2018-08-22T05:49:53.414Z,10.07
2018-08-22T05:52:30.017Z,10.23
2018-08-22T05:54:59.366Z,12.07
2018-08-22T05:57:28.760Z,10.33
2018-08-22T05:59:58.059Z,10.47
2018-08-22T06:02:31.034Z,10.60
2018-08-22T06:05:00.497Z,9.97
2018-08-22T06:07:29.973Z,10.57
2018-08-22T06:09:59.509Z,11.40
2018-08-22T06:12:51.816Z,10.13
2018-08-22T06:15:21.218Z,10.33
2018-08-22T06:17:50.558Z,10.33
2018-08-22T06:20:23.286Z,10.70
2018-08-22T06:22:52.686Z,10.20
2018-08-22T06:25:22.103Z,10.43
2018-08-22T06:27:51.749Z,10.37
2018-08-22T06:30:24.327Z,10.27
2018-08-22T06:32:53.697Z,9.67
2018-08-22T06:35:22.998Z,9.70
2018-08-22T06:37:52.430Z,9.10
2018-08-22T06:40:21.805Z,9.67
2018-08-22T06:42:51.218Z,8.47
2018-08-22T06:45:20.618Z,8.50
2018-08-22T06:47:49.993Z,7.23
2018-08-22T06:50:19.442Z,7.13
2018-08-22T06:52:48.698Z,7.37
2018-08-22T06:55:18.106Z,7.00
2018-08-22T06:57:47.458Z,8.47
2018-08-22T07:00:24.521Z,6.97
2018-08-22T07:02:53.596Z,7.33
2018-08-22T07:05:23.173Z,7.47
2018-08-22T07:07:52.638Z,8.63
2018-08-22T07:10:30.129Z,6.57
2018-08-22T07:12:59.525Z,6.80
2018-08-22T07:15:28.853Z,6.50
2018-08-22T07:17:58.172Z,7.80
2018-08-22T07:20:27.657Z,7.67
2018-08-22T07:22:57.054Z,5.73
2018-08-22T07:25:26.481Z,6.30
2018-08-22T07:27:55.868Z,5.43
2018-08-22T07:30:29.714Z,7.50
2018-08-22T07:32:59.122Z,9.43
2018-08-22T07:35:28.646Z,5.55
2018-08-22T07:37:58.110Z,5.58
2018-08-22T07:41:01.566Z,5.05
2018-08-22T07:43:30.953Z,5.22
2018-08-22T07:46:01.303Z,11.03
2018-08-22T07:48:30.749Z,5.62
2018-08-22T07:51:03.385Z,5.97
2018-08-22T07:53:33.690Z,6.08
2018-08-22T07:56:03.025Z,7.72
2018-08-22T07:58:32.237Z,5.75
2018-08-22T08:01:05.065Z,5.30
2018-08-22T08:03:34.252Z,8.18
2018-08-22T08:06:03.382Z,4.87
2018-08-22T08:08:32.498Z,6.55
2018-08-22T08:11:09.636Z,5.30
2018-08-22T08:13:38.800Z,6.20
2018-08-22T08:16:07.984Z,5.17
2018-08-22T08:18:37.090Z,7.33
2018-08-22T08:21:07.317Z,4.97
2018-08-22T08:23:36.522Z,5.40
2018-08-22T08:26:06.026Z,5.10
2018-08-22T08:28:35.342Z,4.90
2018-08-22T08:31:05.927Z,5.72
2018-08-22T08:33:35.309Z,5.25
2018-08-22T08:36:04.823Z,7.85
2018-08-22T08:38:34.085Z,5.78
2018-08-22T08:41:14.781Z,5.20
2018-08-22T08:43:44.222Z,6.35
2018-08-22T08:46:13.594Z,5.62
2018-08-22T08:48:43.010Z,6.28
2018-08-22T08:51:16.574Z,6.20
2018-08-22T08:53:46.009Z,4.85
2018-08-22T08:56:15.438Z,5.87
2018-08-22T08:58:44.825Z,5.20
2018-08-22T09:01:15.441Z,4.60
2018-08-22T09:03:44.925Z,4.78
2018-08-22T09:06:14.269Z,7.65
2018-08-22T09:08:43.757Z,7.47
2018-08-22T09:11:14.277Z,5.22
2018-08-22T09:13:47.826Z,4.92
2018-08-22T09:16:17.305Z,5.40
2018-08-22T09:18:46.669Z,5.90
2018-08-22T09:21:20.010Z,8.08
2018-08-22T09:23:49.389Z,7.72
2018-08-22T09:26:18.809Z,4.90
2018-08-22T09:28:48.209Z,5.90
2018-08-22T09:31:17.625Z,6.12
2018-08-22T09:33:47.139Z,5.85
2018-08-22T09:36:16.466Z,5.12
2018-08-22T09:38:45.851Z,5.67
2018-08-22T09:41:17.350Z,5.33
2018-08-22T09:43:46.810Z,5.53
2018-08-22T09:46:16.187Z,6.22
2018-08-22T09:48:45.702Z,5.00
2018-08-22T09:51:15.111Z,5.12
2018-08-22T09:53:44.521Z,5.15
2018-08-22T09:56:13.945Z,6.00
2018-08-22T09:58:43.660Z,5.30
2018-08-22T10:01:19.279Z,4.45
2018-08-22T10:03:54.236Z,4.92
2018-08-22T10:06:38.913Z,4.78
2018-08-22T10:09:16.742Z,5.25
2018-08-22T10:11:47.177Z,4.62
2018-08-22T10:14:16.630Z,5.47
2018-08-22T10:16:45.966Z,7.62
2018-08-22T10:19:15.434Z,5.03
2018-08-22T10:21:45.863Z,4.75
2018-08-22T10:24:15.254Z,5.10
2018-08-22T10:26:44.637Z,6.42
2018-08-22T10:29:14.077Z,7.03
2018-08-22T10:31:44.521Z,5.05
2018-08-22T10:34:14.969Z,4.42
2018-08-22T10:36:44.375Z,6.95
2018-08-22T10:39:13.909Z,5.08
2018-08-22T10:41:51.769Z,4.95
2018-08-22T10:44:21.278Z,4.50
2018-08-22T10:46:50.617Z,4.45
2018-08-22T10:49:27.806Z,6.67
2018-08-22T10:52:05.538Z,5.50
2018-08-22T10:54:34.999Z,4.20
2018-08-22T10:57:04.734Z,4.45
2018-08-22T10:59:34.080Z,4.50
2018-08-22T11:02:25.401Z,5.55
2018-08-22T11:04:59.226Z,4.17
2018-08-22T11:07:28.603Z,4.55
2018-08-22T11:09:59.031Z,5.60
2018-08-22T11:12:41.513Z,4.55
2018-08-22T11:15:10.998Z,4.33
2018-08-22T11:17:40.458Z,5.62
2018-08-22T11:20:09.854Z,4.72
2018-08-22T11:22:56.079Z,4.00
2018-08-22T11:25:42.462Z,4.75
2018-08-22T11:28:28.931Z,4.33
2018-08-22T11:31:15.450Z,4.28
2018-08-22T11:34:01.910Z,4.45
2018-08-22T11:36:30.058Z,4.47
2018-08-22T11:38:59.461Z,4.53
2018-08-22T11:41:32.246Z,4.53
2018-08-22T11:44:01.717Z,5.65
2018-08-22T11:46:31.104Z,6.10
2018-08-22T11:49:00.866Z,6.83
2018-08-22T11:51:32.405Z,5.45
2018-08-22T11:54:01.452Z,4.90
2018-08-22T11:56:30.803Z,6.17
2018-08-22T11:59:00.526Z,5.50
2018-08-22T12:01:29.990Z,6.40
2018-08-22T12:03:59.365Z,5.15
2018-08-22T12:06:28.754Z,4.58
2018-08-22T12:08:58.202Z,7.25
2018-08-22T12:11:27.653Z,4.53
2018-08-22T12:13:56.996Z,5.28
2018-08-22T12:16:26.354Z,5.55
2018-08-22T12:18:55.773Z,4.85
2018-08-22T12:21:41.789Z,4.50
2018-08-22T12:24:12.134Z,4.80
2018-08-22T12:26:41.518Z,5.50
2018-08-22T12:29:11.045Z,5.05
2018-08-22T12:31:40.485Z,5.30
2018-08-22T12:34:09.889Z,5.53
2018-08-22T12:36:39.318Z,4.75
2018-08-22T12:39:09.031Z,7.97
2018-08-22T12:41:41.626Z,16.85
2018-08-22T12:44:11.036Z,5.72
2018-08-22T12:46:41.045Z,5.62
2018-08-22T12:49:10.425Z,4.75
2018-08-22T12:51:41.849Z,6.78
2018-08-22T12:54:11.233Z,5.47
2018-08-22T12:56:40.673Z,7.55
2018-08-22T12:59:10.442Z,4.90
2018-08-22T13:01:51.806Z,5.50
2018-08-22T13:04:21.230Z,5.60
2018-08-22T13:06:50.669Z,4.60
2018-08-22T13:09:20.009Z,4.75
2018-08-22T13:11:51.594Z,6.90
2018-08-22T13:14:21.023Z,4.30
2018-08-22T13:16:50.406Z,5.28
2018-08-22T13:19:19.440Z,7.05
2018-08-22T13:21:48.912Z,4.95
2018-08-22T13:24:18.281Z,4.58
2018-08-22T13:26:47.729Z,4.65
2018-08-22T13:29:17.194Z,4.35
2018-08-22T13:31:50.547Z,5.47
2018-08-22T13:34:19.966Z,4.80
2018-08-22T13:36:49.393Z,4.58
2018-08-22T13:39:18.734Z,4.42
2018-08-22T13:41:52.846Z,5.10
2018-08-22T13:44:22.213Z,5.30
2018-08-22T13:46:51.693Z,5.80
2018-08-22T13:49:21.114Z,8.15
2018-08-22T13:51:59.137Z,4.83
2018-08-22T13:54:28.473Z,6.45
2018-08-22T13:56:57.998Z,5.55
2018-08-22T13:59:27.392Z,4.60
2018-08-22T14:01:57.832Z,4.65
2018-08-22T14:04:27.241Z,5.15
2018-08-22T14:06:56.341Z,4.70
2018-08-22T14:09:25.762Z,4.67
2018-08-22T14:11:56.989Z,5.00
2018-08-22T14:14:26.382Z,4.40
2018-08-22T14:16:55.775Z,10.30
2018-08-22T14:19:25.086Z,4.92
2018-08-22T14:22:46.882Z,4.60
2018-08-22T14:25:16.363Z,4.15
2018-08-22T14:27:45.771Z,4.58
2018-08-22T14:30:15.077Z,4.03
2018-08-22T14:32:44.527Z,4.50
2018-08-22T14:35:13.905Z,4.55
2018-08-22T14:37:43.294Z,4.05
2018-08-22T14:40:12.770Z,5.20
2018-08-22T14:42:42.214Z,4.20
2018-08-22T14:45:11.641Z,4.30
2018-08-22T14:47:41.075Z,3.83
2018-08-22T14:50:10.437Z,3.77
2018-08-22T14:52:39.613Z,3.65
2018-08-22T14:55:08.957Z,3.87
2018-08-22T14:57:38.435Z,3.80
2018-08-22T15:00:08.550Z,4.45
2018-08-22T15:02:38.146Z,5.80
2018-08-22T15:05:07.541Z,4.10
2018-08-22T15:07:37.298Z,4.03
2018-08-22T15:10:06.689Z,3.75
2018-08-22T15:12:36.123Z,3.37
2018-08-22T15:15:05.546Z,4.12
2018-08-22T15:17:35.472Z,3.33
2018-08-22T15:20:05.093Z,3.70
2018-08-22T15:22:34.570Z,2.50
2018-08-22T15:25:04.075Z,3.25
2018-08-22T15:27:33.522Z,2.87
2018-08-22T15:30:03.118Z,3.50
2018-08-22T15:32:36.127Z,6.25
2018-08-22T15:35:05.501Z,4.17
2018-08-22T15:37:34.931Z,3.42
2018-08-22T15:40:04.379Z,3.50
2018-08-22T15:42:33.809Z,3.33
2018-08-22T15:45:03.318Z,2.58
2018-08-22T15:47:32.701Z,2.72
2018-08-22T15:50:02.069Z,2.77
2018-08-22T15:52:31.546Z,2.75
2018-08-22T15:55:16.265Z,2.70
2018-08-22T15:58:04.153Z,2.98
2018-08-22T16:00:48.483Z,3.37
2018-08-22T16:03:18.003Z,3.00
2018-08-22T16:05:48.128Z,3.33
2018-08-22T16:08:20.525Z,2.85
2018-08-22T16:10:49.903Z,3.12
2018-08-22T16:13:24.514Z,3.42
2018-08-22T16:15:55.242Z,2.90
2018-08-22T16:18:24.734Z,4.00
2018-08-22T16:20:59.745Z,3.02
2018-08-22T16:23:31.130Z,3.10
2018-08-22T16:26:01.461Z,3.50
2018-08-22T16:28:57.524Z,2.62
2018-08-22T16:31:32.937Z,4.20
2018-08-22T16:34:02.001Z,3.47
2018-08-22T16:36:31.804Z,4.62
2018-08-22T16:39:01.868Z,3.62
2018-08-22T16:41:33.013Z,3.58
2018-08-22T16:44:02.561Z,4.20
2018-08-22T16:46:32.181Z,7.17
2018-08-22T16:49:01.570Z,4.12
2018-08-22T16:51:31.246Z,4.00
2018-08-22T16:54:05.729Z,4.67
2018-08-22T16:56:35.562Z,3.98
2018-08-22T16:59:09.127Z,3.58
2018-08-22T17:01:48.283Z,3.70
2018-08-22T17:04:17.312Z,4.10
2018-08-22T17:06:47.092Z,4.45
2018-08-22T17:09:16.576Z,4.17
2018-08-22T17:11:49.417Z,4.10
2018-08-22T17:14:18.809Z,4.08
2018-08-22T17:16:48.282Z,3.80
2018-08-22T17:19:17.609Z,7.45
2018-08-22T17:21:48.214Z,5.22
2018-08-22T17:24:17.305Z,4.55
2018-08-22T17:26:47.117Z,3.98
2018-08-22T17:29:17.572Z,3.85
2018-08-22T17:32:06.327Z,3.85
2018-08-22T17:34:35.781Z,4.35
2018-08-22T17:37:09.301Z,3.95
2018-08-22T17:39:38.837Z,7.50
2018-08-22T17:42:16.014Z,7.03
2018-08-22T17:44:45.437Z,10.13
2018-08-22T17:47:14.897Z,3.85
2018-08-22T17:49:49.019Z,5.25
2018-08-22T17:52:22.594Z,7.05
2018-08-22T17:54:51.708Z,4.60
2018-08-22T17:57:22.216Z,4.17
2018-08-22T17:59:51.316Z,5.00
2018-08-22T18:02:20.817Z,12.05
2018-08-22T18:05:00.774Z,9.95
2018-08-22T18:07:30.385Z,6.00
2018-08-22T18:09:59.813Z,5.45
2018-08-22T18:12:31.197Z,4.72
2018-08-22T18:15:04.286Z,6.40
2018-08-22T18:17:33.361Z,8.68
2018-08-22T18:20:02.756Z,5.28
2018-08-22T18:22:44.833Z,4.22
2018-08-22T18:25:14.233Z,4.35
2018-08-22T18:27:44.027Z,4.05
2018-08-22T18:30:13.393Z,4.30
2018-08-22T18:32:46.018Z,6.60
2018-08-22T18:35:15.429Z,8.30
2018-08-22T18:37:44.870Z,5.55
2018-08-22T18:40:21.909Z,5.55
2018-08-22T18:42:53.493Z,4.90
2018-08-22T18:45:23.613Z,6.67
2018-08-22T18:47:52.951Z,6.47
2018-08-22T18:50:22.466Z,4.87
2018-08-22T18:52:56.813Z,7.10
2018-08-22T18:55:28.782Z,6.90
2018-08-22T18:57:59.445Z,5.00
2018-08-22T19:00:38.330Z,6.08
2018-08-22T19:03:07.705Z,6.12
2018-08-22T19:05:41.569Z,4.65
2018-08-22T19:08:14.719Z,3.70
2018-08-22T19:10:58.233Z,4.70
2018-08-22T19:13:27.768Z,4.08
2018-08-22T19:16:02.885Z,5.03
2018-08-22T19:18:32.254Z,7.00
2018-08-22T19:21:05.189Z,4.42
2018-08-22T19:23:34.599Z,7.90
2018-08-22T19:26:04.889Z,7.33
2018-08-22T19:28:55.005Z,7.40
2018-08-22T19:31:24.405Z,5.00
2018-08-22T19:33:53.893Z,4.90
2018-08-22T19:36:23.383Z,4.83
2018-08-22T19:38:52.708Z,4.35
2018-08-22T19:41:34.413Z,5.42
2018-08-22T19:44:11.998Z,6.35
2018-08-22T19:46:41.097Z,9.60
2018-08-22T19:49:10.366Z,4.83
2018-08-22T19:51:39.485Z,7.53
2018-08-22T19:54:09.209Z,5.78
2018-08-22T19:56:38.569Z,5.75
2018-08-22T19:59:07.902Z,5.75
2018-08-22T20:01:54.221Z,4.37
2018-08-22T20:04:23.606Z,7.05
2018-08-22T20:06:52.973Z,5.35
2018-08-22T20:09:22.618Z,4.62
2018-08-22T20:12:29.553Z,6.30
2018-08-22T20:14:58.985Z,5.33
2018-08-22T20:17:28.357Z,8.10
2018-08-22T20:19:57.755Z,11.60
2018-08-22T20:22:54.468Z,8.27
2018-08-22T20:25:23.906Z,12.77
2018-08-22T20:27:53.033Z,7.93
2018-08-22T20:30:23.284Z,10.07
2018-08-22T20:32:59.398Z,5.50
2018-08-22T20:35:31.993Z,13.37
2018-08-22T20:38:02.173Z,7.43
2018-08-22T20:40:31.409Z,11.43
2018-08-22T20:43:00.537Z,10.20
2018-08-22T20:45:34.950Z,15.55
2018-08-22T20:48:09.370Z,10.33
2018-08-22T20:50:48.375Z,16.73
2018-08-22T20:53:18.791Z,6.73
2018-08-22T20:55:48.229Z,8.10
2018-08-22T20:58:25.521Z,10.47
2018-08-22T21:00:54.986Z,11.77
2018-08-22T21:03:24.013Z,13.13
2018-08-22T21:05:53.422Z,13.57
2018-08-22T21:08:23.029Z,11.43
2018-08-22T21:11:01.122Z,11.97
2018-08-22T21:13:30.487Z,8.87
2018-08-22T21:15:59.899Z,8.33
2018-08-22T21:18:29.261Z,8.67
2018-08-22T21:20:59.397Z,11.00
2018-08-22T21:23:28.734Z,5.73
2018-08-22T21:25:58.034Z,7.50
2018-08-22T21:28:32.654Z,7.13
2018-08-22T21:31:03.145Z,5.67
2018-08-22T21:33:32.594Z,7.63
2018-08-22T21:36:01.761Z,6.47
2018-08-22T21:38:31.200Z,7.10
2018-08-22T21:41:06.633Z,7.30
2018-08-22T21:43:36.038Z,9.63
2018-08-22T21:46:05.485Z,7.17
2018-08-22T21:48:34.845Z,6.40
2018-08-22T21:51:17.682Z,9.50
2018-08-22T21:53:47.151Z,7.60
2018-08-22T21:56:17.526Z,6.83
2018-08-22T21:58:46.970Z,7.70
2018-08-22T22:01:17.541Z,5.93
2018-08-22T22:03:47.025Z,6.23
2018-08-22T22:06:16.465Z,7.50
2018-08-22T22:08:45.885Z,6.90
2018-08-22T22:11:20.143Z,6.17
2018-08-22T22:13:49.650Z,9.17
2018-08-22T22:16:21.637Z,6.63
2018-08-22T22:18:51.056Z,6.57
2018-08-22T22:21:26.144Z,6.73
2018-08-22T22:23:55.449Z,11.57
2018-08-22T22:26:24.849Z,5.73
2018-08-22T22:28:53.997Z,6.10
2018-08-22T22:31:30.901Z,7.43
2018-08-22T22:34:01.773Z,6.90
2018-08-22T22:36:32.101Z,6.70
2018-08-22T22:39:01.554Z,9.27
2018-08-22T22:41:38.666Z,6.17
2018-08-22T22:44:07.667Z,6.77
2018-08-22T22:46:36.996Z,8.83
2018-08-22T22:49:06.446Z,6.30
2018-08-22T22:51:35.893Z,6.20
2018-08-22T22:54:05.269Z,6.53
2018-08-22T22:56:34.743Z,6.47
2018-08-22T22:59:04.117Z,6.63
2018-08-22T23:04:14.484Z,6.80
2018-08-22T23:06:43.637Z,6.67
2018-08-22T23:09:12.821Z,7.30
2018-08-22T23:12:16.278Z,6.80
2018-08-22T23:14:45.155Z,7.23
2018-08-22T23:17:14.286Z,5.70
2018-08-22T23:19:43.389Z,6.00
2018-08-22T23:22:13.613Z,6.07
2018-08-22T23:24:42.703Z,5.87
2018-08-22T23:27:11.798Z,7.03
2018-08-22T23:29:41.190Z,6.20
2018-08-22T23:32:25.537Z,7.70
2018-08-22T23:34:54.993Z,6.23
2018-08-22T23:37:24.020Z,6.50
2018-08-22T23:39:53.422Z,7.17
2018-08-22T23:42:23.825Z,6.33
2018-08-22T23:44:56.097Z,7.27
2018-08-22T23:47:25.569Z,8.47
2018-08-22T23:49:54.910Z,6.77
2018-08-22T23:52:33.905Z,9.17
2018-08-22T23:55:03.341Z,5.97
2018-08-22T23:57:32.706Z,7.53
